sensor_id;sensor_type;location;lat;lon;timestamp;temperature;humidity
39777;DHT22;25453;48.162;14.510;2024-02-04T00:01:00;9.80;74.30
39777;DHT22;25453;48.162;14.510;2024-02-04T00:03:28;9.80;74.40
39777;DHT22;25453;48.162;14.510;2024-02-04T00:05:55;9.90;74.40
39777;DHT22;25453;48.162;14.510;2024-02-04T00:08:23;9.90;74.50
39777;DHT22;25453;48.162;14.510;2024-02-04T00:10:50;9.90;74.60
39777;DHT22;25453;48.162;14.510;2024-02-04T00:13:17;9.90;74.70
39777;DHT22;25453;48.162;14.510;2024-02-04T00:15:45;9.90;74.70
39777;DHT22;25453;48.162;14.510;2024-02-04T00:18:12;9.90;74.80
39777;DHT22;25453;48.162;14.510;2024-02-04T00:20:40;9.80;74.90
39777;DHT22;25453;48.162;14.510;2024-02-04T00:23:07;9.80;75.00
39777;DHT22;25453;48.162;14.510;2024-02-04T00:25:34;9.80;75.30
39777;DHT22;25453;48.162;14.510;2024-02-04T00:28:03;9.70;75.30
39777;DHT22;25453;48.162;14.510;2024-02-04T00:30:31;9.70;75.50
39777;DHT22;25453;48.162;14.510;2024-02-04T00:32:58;9.70;75.70
39777;DHT22;25453;48.162;14.510;2024-02-04T00:35:30;9.60;75.80
39777;DHT22;25453;48.162;14.510;2024-02-04T00:37:58;9.60;76.00
39777;DHT22;25453;48.162;14.510;2024-02-04T00:40:25;9.60;76.20
39777;DHT22;25453;48.162;14.510;2024-02-04T00:42:53;9.60;76.40
39777;DHT22;25453;48.162;14.510;2024-02-04T00:45:21;9.60;76.40
39777;DHT22;25453;48.162;14.510;2024-02-04T00:47:48;9.60;76.60
39777;DHT22;25453;48.162;14.510;2024-02-04T00:50:16;9.50;76.70
39777;DHT22;25453;48.162;14.510;2024-02-04T00:52:43;9.50;76.90
39777;DHT22;25453;48.162;14.510;2024-02-04T00:55:10;9.50;77.10
39777;DHT22;25453;48.162;14.510;2024-02-04T00:57:38;9.50;77.20
39777;DHT22;25453;48.162;14.510;2024-02-04T01:00:06;9.50;77.30
39777;DHT22;25453;48.162;14.510;2024-02-04T01:02:34;9.50;77.50
39777;DHT22;25453;48.162;14.510;2024-02-04T01:05:02;9.50;77.60
39777;DHT22;25453;48.162;14.510;2024-02-04T01:07:30;9.50;77.70
39777;DHT22;25453;48.162;14.510;2024-02-04T01:09:57;9.50;77.70
39777;DHT22;25453;48.162;14.510;2024-02-04T01:12:24;9.50;78.00
39777;DHT22;25453;48.162;14.510;2024-02-04T01:14:52;9.50;78.10
39777;DHT22;25453;48.162;14.510;2024-02-04T01:17:19;9.50;78.20
39777;DHT22;25453;48.162;14.510;2024-02-04T01:19:47;9.50;78.30
39777;DHT22;25453;48.162;14.510;2024-02-04T01:22:14;9.50;78.50
39777;DHT22;25453;48.162;14.510;2024-02-04T01:24:42;9.50;78.70
39777;DHT22;25453;48.162;14.510;2024-02-04T01:27:25;9.50;78.80
39777;DHT22;25453;48.162;14.510;2024-02-04T04:16:45;9.20;83.30
39777;DHT22;25453;48.162;14.510;2024-02-04T04:23:52;9.20;83.40
39777;DHT22;25453;48.162;14.510;2024-02-04T04:26:22;9.10;83.60
39777;DHT22;25453;48.162;14.510;2024-02-04T04:28:53;9.10;83.70
39777;DHT22;25453;48.162;14.510;2024-02-04T04:31:26;9.10;83.80
39777;DHT22;25453;48.162;14.510;2024-02-04T04:33:56;9.10;83.90
39777;DHT22;25453;48.162;14.510;2024-02-04T04:36:52;9.10;84.00
39777;DHT22;25453;48.162;14.510;2024-02-04T04:39:32;9.20;84.00
39777;DHT22;25453;48.162;14.510;2024-02-04T04:42:00;9.20;84.10
39777;DHT22;25453;48.162;14.510;2024-02-04T04:44:39;9.20;84.00
39777;DHT22;25453;48.162;14.510;2024-02-04T04:47:07;9.20;84.10
39777;DHT22;25453;48.162;14.510;2024-02-04T04:49:42;9.10;84.00
39777;DHT22;25453;48.162;14.510;2024-02-04T04:52:22;9.10;84.10
39777;DHT22;25453;48.162;14.510;2024-02-04T04:55:07;9.10;84.20
39777;DHT22;25453;48.162;14.510;2024-02-04T04:58:03;9.10;84.20
39777;DHT22;25453;48.162;14.510;2024-02-04T05:00:56;9.10;84.40
39777;DHT22;25453;48.162;14.510;2024-02-04T05:04:09;9.10;84.30
39777;DHT22;25453;48.162;14.510;2024-02-04T05:14:34;9.10;84.50
39777;DHT22;25453;48.162;14.510;2024-02-04T05:18:13;9.10;84.50
39777;DHT22;25453;48.162;14.510;2024-02-04T05:21:46;9.10;84.50
39777;DHT22;25453;48.162;14.510;2024-02-04T05:24:47;9.10;84.40
39777;DHT22;25453;48.162;14.510;2024-02-04T05:38:54;9.00;84.60
39777;DHT22;25453;48.162;14.510;2024-02-04T05:41:49;9.00;84.70
39777;DHT22;25453;48.162;14.510;2024-02-04T06:27:53;8.90;85.00
39777;DHT22;25453;48.162;14.510;2024-02-04T06:34:42;8.90;84.80
39777;DHT22;25453;48.162;14.510;2024-02-04T06:37:47;8.90;84.80
39777;DHT22;25453;48.162;14.510;2024-02-04T06:41:11;8.90;84.80
39777;DHT22;25453;48.162;14.510;2024-02-04T06:43:39;8.90;84.80
39777;DHT22;25453;48.162;14.510;2024-02-04T06:46:07;8.90;84.70
39777;DHT22;25453;48.162;14.510;2024-02-04T06:48:39;8.90;84.80
39777;DHT22;25453;48.162;14.510;2024-02-04T06:51:16;8.90;84.80
39777;DHT22;25453;48.162;14.510;2024-02-04T06:53:47;8.90;84.80
39777;DHT22;25453;48.162;14.510;2024-02-04T06:56:15;8.90;84.60
39777;DHT22;25453;48.162;14.510;2024-02-04T06:58:43;8.90;84.60
39777;DHT22;25453;48.162;14.510;2024-02-04T07:01:14;8.90;84.50
39777;DHT22;25453;48.162;14.510;2024-02-04T07:03:42;8.90;84.50
39777;DHT22;25453;48.162;14.510;2024-02-04T07:06:11;8.90;84.50
39777;DHT22;25453;48.162;14.510;2024-02-04T07:08:38;8.90;84.60
39777;DHT22;25453;48.162;14.510;2024-02-04T07:11:06;8.90;84.70
39777;DHT22;25453;48.162;14.510;2024-02-04T07:13:34;8.90;84.70
39777;DHT22;25453;48.162;14.510;2024-02-04T07:16:04;9.00;84.70
39777;DHT22;25453;48.162;14.510;2024-02-04T07:18:32;9.00;84.70
39777;DHT22;25453;48.162;14.510;2024-02-04T07:20:59;9.00;84.60
39777;DHT22;25453;48.162;14.510;2024-02-04T07:23:27;9.00;84.50
39777;DHT22;25453;48.162;14.510;2024-02-04T10:56:49;9.90;85.80
39777;DHT22;25453;48.162;14.510;2024-02-04T11:15:06;9.80;85.50
39777;DHT22;25453;48.162;14.510;2024-02-04T11:29:12;9.90;85.60
39777;DHT22;25453;48.162;14.510;2024-02-04T11:31:48;9.90;85.40
39777;DHT22;25453;48.162;14.510;2024-02-04T11:34:22;9.90;85.40
39777;DHT22;25453;48.162;14.510;2024-02-04T11:36:58;9.90;85.20
39777;DHT22;25453;48.162;14.510;2024-02-04T11:39:33;9.90;85.30
39777;DHT22;25453;48.162;14.510;2024-02-04T11:42:14;9.90;85.30
39777;DHT22;25453;48.162;14.510;2024-02-04T11:44:44;9.90;85.20
39777;DHT22;25453;48.162;14.510;2024-02-04T11:47:26;10.00;85.10
39777;DHT22;25453;48.162;14.510;2024-02-04T11:49:58;10.00;85.00
39777;DHT22;25453;48.162;14.510;2024-02-04T11:52:47;10.00;85.00
39777;DHT22;25453;48.162;14.510;2024-02-04T11:55:26;10.00;84.80
39777;DHT22;25453;48.162;14.510;2024-02-04T11:58:00;10.00;84.80
39777;DHT22;25453;48.162;14.510;2024-02-04T12:00:34;10.00;84.80
39777;DHT22;25453;48.162;14.510;2024-02-04T12:03:08;10.00;84.60
39777;DHT22;25453;48.162;14.510;2024-02-04T12:05:37;10.00;84.70
39777;DHT22;25453;48.162;14.510;2024-02-04T12:08:07;10.00;84.70
39777;DHT22;25453;48.162;14.510;2024-02-04T12:10:42;10.10;84.60
39777;DHT22;25453;48.162;14.510;2024-02-04T12:13:09;10.10;84.80
39777;DHT22;25453;48.162;14.510;2024-02-04T12:15:44;10.20;84.70
39777;DHT22;25453;48.162;14.510;2024-02-04T12:18:12;10.20;84.60
39777;DHT22;25453;48.162;14.510;2024-02-04T12:20:48;10.20;84.40
39777;DHT22;25453;48.162;14.510;2024-02-04T12:23:19;10.30;84.30
39777;DHT22;25453;48.162;14.510;2024-02-04T12:25:55;10.30;84.20
39777;DHT22;25453;48.162;14.510;2024-02-04T12:28:23;10.30;83.90
39777;DHT22;25453;48.162;14.510;2024-02-04T12:30:56;10.30;83.90
39777;DHT22;25453;48.162;14.510;2024-02-04T12:33:25;10.40;83.70
39777;DHT22;25453;48.162;14.510;2024-02-04T12:36:00;10.40;83.40
39777;DHT22;25453;48.162;14.510;2024-02-04T12:38:28;10.40;83.30
39777;DHT22;25453;48.162;14.510;2024-02-04T12:41:02;10.40;83.20
39777;DHT22;25453;48.162;14.510;2024-02-04T12:43:30;10.40;83.30
39777;DHT22;25453;48.162;14.510;2024-02-04T12:46:04;10.40;83.30
39777;DHT22;25453;48.162;14.510;2024-02-04T12:48:33;10.40;83.10
39777;DHT22;25453;48.162;14.510;2024-02-04T12:51:07;10.40;83.00
39777;DHT22;25453;48.162;14.510;2024-02-04T12:53:38;10.40;82.90
39777;DHT22;25453;48.162;14.510;2024-02-04T12:56:06;10.40;82.90
39777;DHT22;25453;48.162;14.510;2024-02-04T12:58:42;10.40;82.90
39777;DHT22;25453;48.162;14.510;2024-02-04T13:01:09;10.40;82.90
39777;DHT22;25453;48.162;14.510;2024-02-04T13:03:37;10.50;82.80
39777;DHT22;25453;48.162;14.510;2024-02-04T13:06:05;10.50;82.60
39777;DHT22;25453;48.162;14.510;2024-02-04T13:08:32;10.50;82.60
39777;DHT22;25453;48.162;14.510;2024-02-04T13:11:01;10.50;82.50
39777;DHT22;25453;48.162;14.510;2024-02-04T13:13:29;10.50;82.50
39777;DHT22;25453;48.162;14.510;2024-02-04T13:15:57;10.50;82.40
39777;DHT22;25453;48.162;14.510;2024-02-04T13:18:25;10.50;82.30
39777;DHT22;25453;48.162;14.510;2024-02-04T13:20:52;10.60;82.30
39777;DHT22;25453;48.162;14.510;2024-02-04T13:23:19;10.60;82.40
39777;DHT22;25453;48.162;14.510;2024-02-04T13:25:46;10.60;82.40
39777;DHT22;25453;48.162;14.510;2024-02-04T13:28:14;10.60;82.40
39777;DHT22;25453;48.162;14.510;2024-02-04T13:30:41;10.60;82.40
39777;DHT22;25453;48.162;14.510;2024-02-04T13:33:09;10.70;82.10
39777;DHT22;25453;48.162;14.510;2024-02-04T13:35:36;10.70;81.90
39777;DHT22;25453;48.162;14.510;2024-02-04T13:38:14;10.70;81.70
39777;DHT22;25453;48.162;14.510;2024-02-04T13:40:55;10.70;81.70
39777;DHT22;25453;48.162;14.510;2024-02-04T13:43:22;10.60;81.60
39777;DHT22;25453;48.162;14.510;2024-02-04T13:45:49;10.60;81.70
39777;DHT22;25453;48.162;14.510;2024-02-04T13:48:23;10.60;81.90
39777;DHT22;25453;48.162;14.510;2024-02-04T13:50:53;10.60;81.90
39777;DHT22;25453;48.162;14.510;2024-02-04T13:53:21;10.60;81.80
39777;DHT22;25453;48.162;14.510;2024-02-04T13:55:49;10.60;81.90
39777;DHT22;25453;48.162;14.510;2024-02-04T13:58:17;10.60;81.90
39777;DHT22;25453;48.162;14.510;2024-02-04T14:00:45;10.60;81.70
39777;DHT22;25453;48.162;14.510;2024-02-04T14:03:13;10.60;81.60
39777;DHT22;25453;48.162;14.510;2024-02-04T14:05:41;10.60;81.70
39777;DHT22;25453;48.162;14.510;2024-02-04T14:08:10;10.60;81.80
39777;DHT22;25453;48.162;14.510;2024-02-04T14:10:41;10.60;81.80
39777;DHT22;25453;48.162;14.510;2024-02-04T14:13:33;10.60;81.60
39777;DHT22;25453;48.162;14.510;2024-02-04T14:19:19;10.60;81.30
39777;DHT22;25453;48.162;14.510;2024-02-04T14:22:03;10.60;81.20
39777;DHT22;25453;48.162;14.510;2024-02-04T14:24:30;10.60;81.10
39777;DHT22;25453;48.162;14.510;2024-02-04T14:26:59;10.60;81.10
39777;DHT22;25453;48.162;14.510;2024-02-04T14:29:26;10.60;81.10
39777;DHT22;25453;48.162;14.510;2024-02-04T14:31:55;10.60;81.10
39777;DHT22;25453;48.162;14.510;2024-02-04T14:34:36;10.60;81.20
39777;DHT22;25453;48.162;14.510;2024-02-04T14:37:04;10.60;81.20
39777;DHT22;25453;48.162;14.510;2024-02-04T14:39:35;10.60;81.20
39777;DHT22;25453;48.162;14.510;2024-02-04T14:42:02;10.60;81.10
39777;DHT22;25453;48.162;14.510;2024-02-04T14:44:35;10.60;81.00
39777;DHT22;25453;48.162;14.510;2024-02-04T14:47:02;10.70;81.00
39777;DHT22;25453;48.162;14.510;2024-02-04T14:49:30;10.70;81.00
39777;DHT22;25453;48.162;14.510;2024-02-04T14:51:58;10.70;80.90
39777;DHT22;25453;48.162;14.510;2024-02-04T14:54:25;10.70;80.90
39777;DHT22;25453;48.162;14.510;2024-02-04T14:56:54;10.70;80.90
39777;DHT22;25453;48.162;14.510;2024-02-04T14:59:24;10.70;80.90
39777;DHT22;25453;48.162;14.510;2024-02-04T15:01:51;10.70;80.90
39777;DHT22;25453;48.162;14.510;2024-02-04T15:04:19;10.70;80.80
39777;DHT22;25453;48.162;14.510;2024-02-04T15:06:47;10.70;80.70
39777;DHT22;25453;48.162;14.510;2024-02-04T15:09:15;10.70;80.80
39777;DHT22;25453;48.162;14.510;2024-02-04T15:11:42;10.70;80.70
39777;DHT22;25453;48.162;14.510;2024-02-04T15:14:10;10.70;80.70
39777;DHT22;25453;48.162;14.510;2024-02-04T15:16:37;10.70;80.60
39777;DHT22;25453;48.162;14.510;2024-02-04T15:19:07;10.70;80.60
39777;DHT22;25453;48.162;14.510;2024-02-04T15:21:36;10.70;80.60
39777;DHT22;25453;48.162;14.510;2024-02-04T15:24:04;10.70;80.60
39777;DHT22;25453;48.162;14.510;2024-02-04T15:26:34;10.70;80.50
39777;DHT22;25453;48.162;14.510;2024-02-04T15:29:03;10.70;80.50
39777;DHT22;25453;48.162;14.510;2024-02-04T15:31:40;10.70;80.40
39777;DHT22;25453;48.162;14.510;2024-02-04T15:34:13;10.70;80.30
39777;DHT22;25453;48.162;14.510;2024-02-04T15:36:41;10.70;80.30
39777;DHT22;25453;48.162;14.510;2024-02-04T15:39:08;10.70;80.30
39777;DHT22;25453;48.162;14.510;2024-02-04T15:41:38;10.70;80.30
39777;DHT22;25453;48.162;14.510;2024-02-04T15:44:06;10.70;80.30
39777;DHT22;25453;48.162;14.510;2024-02-04T15:46:37;10.70;80.20
39777;DHT22;25453;48.162;14.510;2024-02-04T15:49:06;10.70;80.20
39777;DHT22;25453;48.162;14.510;2024-02-04T15:51:38;10.70;80.10
39777;DHT22;25453;48.162;14.510;2024-02-04T15:54:06;10.70;80.10
39777;DHT22;25453;48.162;14.510;2024-02-04T15:56:34;10.70;80.10
39777;DHT22;25453;48.162;14.510;2024-02-04T15:59:08;10.70;80.10
39777;DHT22;25453;48.162;14.510;2024-02-04T16:01:38;10.70;80.10
39777;DHT22;25453;48.162;14.510;2024-02-04T16:04:08;10.70;80.00
39777;DHT22;25453;48.162;14.510;2024-02-04T16:06:36;10.70;80.00
39777;DHT22;25453;48.162;14.510;2024-02-04T16:09:06;10.70;79.90
39777;DHT22;25453;48.162;14.510;2024-02-04T16:12:05;10.70;79.90
39777;DHT22;25453;48.162;14.510;2024-02-04T16:14:37;10.70;79.90
39777;DHT22;25453;48.162;14.510;2024-02-04T16:17:04;10.70;79.80
39777;DHT22;25453;48.162;14.510;2024-02-04T16:19:32;10.70;79.90
39777;DHT22;25453;48.162;14.510;2024-02-04T16:22:00;10.70;79.90
39777;DHT22;25453;48.162;14.510;2024-02-04T16:24:27;10.70;79.80
39777;DHT22;25453;48.162;14.510;2024-02-04T16:26:55;10.70;79.80
39777;DHT22;25453;48.162;14.510;2024-02-04T16:29:25;10.70;79.80
39777;DHT22;25453;48.162;14.510;2024-02-04T16:31:55;10.70;79.80
39777;DHT22;25453;48.162;14.510;2024-02-04T16:34:22;10.70;79.80
39777;DHT22;25453;48.162;14.510;2024-02-04T16:36:50;10.70;79.80
39777;DHT22;25453;48.162;14.510;2024-02-04T16:39:17;10.70;79.80
39777;DHT22;25453;48.162;14.510;2024-02-04T16:41:45;10.70;79.70
39777;DHT22;25453;48.162;14.510;2024-02-04T16:44:12;10.70;79.70
39777;DHT22;25453;48.162;14.510;2024-02-04T16:46:41;10.70;79.70
39777;DHT22;25453;48.162;14.510;2024-02-04T16:49:08;10.70;79.70
39777;DHT22;25453;48.162;14.510;2024-02-04T16:51:43;10.70;79.70
39777;DHT22;25453;48.162;14.510;2024-02-04T16:54:10;10.70;79.70
39777;DHT22;25453;48.162;14.510;2024-02-04T16:56:38;10.70;79.70
39777;DHT22;25453;48.162;14.510;2024-02-04T16:59:06;10.70;79.80
39777;DHT22;25453;48.162;14.510;2024-02-04T17:01:37;10.70;79.80
39777;DHT22;25453;48.162;14.510;2024-02-04T17:04:12;10.70;79.80
39777;DHT22;25453;48.162;14.510;2024-02-04T17:06:40;10.70;79.90
39777;DHT22;25453;48.162;14.510;2024-02-04T17:09:12;10.70;79.90
39777;DHT22;25453;48.162;14.510;2024-02-04T17:11:50;10.70;79.90
39777;DHT22;25453;48.162;14.510;2024-02-04T17:14:19;10.70;80.00
39777;DHT22;25453;48.162;14.510;2024-02-04T17:17:13;10.70;80.00
39777;DHT22;25453;48.162;14.510;2024-02-04T17:20:10;10.70;80.10
39777;DHT22;25453;48.162;14.510;2024-02-04T17:22:48;10.70;80.20
39777;DHT22;25453;48.162;14.510;2024-02-04T17:25:43;10.70;80.30
39777;DHT22;25453;48.162;14.510;2024-02-04T17:28:28;10.70;80.30
39777;DHT22;25453;48.162;14.510;2024-02-04T17:34:03;10.70;80.30
39777;DHT22;25453;48.162;14.510;2024-02-04T17:36:33;10.70;80.30
39777;DHT22;25453;48.162;14.510;2024-02-04T17:39:01;10.70;80.30
39777;DHT22;25453;48.162;14.510;2024-02-04T17:41:36;10.70;80.40
39777;DHT22;25453;48.162;14.510;2024-02-04T17:44:03;10.70;80.40
39777;DHT22;25453;48.162;14.510;2024-02-04T17:46:31;10.70;80.40
39777;DHT22;25453;48.162;14.510;2024-02-04T17:49:01;10.70;80.40
39777;DHT22;25453;48.162;14.510;2024-02-04T17:51:35;10.70;80.40
39777;DHT22;25453;48.162;14.510;2024-02-04T17:54:02;10.80;80.40
39777;DHT22;25453;48.162;14.510;2024-02-04T17:56:30;10.80;80.30
39777;DHT22;25453;48.162;14.510;2024-02-04T17:59:01;10.80;80.20
39777;DHT22;25453;48.162;14.510;2024-02-04T18:01:31;10.80;80.20
39777;DHT22;25453;48.162;14.510;2024-02-04T18:03:59;10.80;80.20
39777;DHT22;25453;48.162;14.510;2024-02-04T18:06:27;10.80;80.10
39777;DHT22;25453;48.162;14.510;2024-02-04T18:08:55;10.80;80.10
39777;DHT22;25453;48.162;14.510;2024-02-04T18:11:25;10.80;80.00
39777;DHT22;25453;48.162;14.510;2024-02-04T18:13:56;10.80;80.00
39777;DHT22;25453;48.162;14.510;2024-02-04T18:16:23;10.80;80.00
39777;DHT22;25453;48.162;14.510;2024-02-04T18:18:51;10.80;80.00
39777;DHT22;25453;48.162;14.510;2024-02-04T18:21:21;10.90;79.90
39777;DHT22;25453;48.162;14.510;2024-02-04T18:23:52;10.90;79.90
39777;DHT22;25453;48.162;14.510;2024-02-04T18:26:30;10.90;79.90
39777;DHT22;25453;48.162;14.510;2024-02-04T18:29:06;10.90;79.90
39777;DHT22;25453;48.162;14.510;2024-02-04T18:31:34;10.90;79.90
39777;DHT22;25453;48.162;14.510;2024-02-04T18:34:02;10.90;79.90
39777;DHT22;25453;48.162;14.510;2024-02-04T18:36:30;10.90;79.90
39777;DHT22;25453;48.162;14.510;2024-02-04T18:38:58;10.90;80.00
39777;DHT22;25453;48.162;14.510;2024-02-04T18:41:25;10.90;80.00
39777;DHT22;25453;48.162;14.510;2024-02-04T18:43:55;10.90;80.00
39777;DHT22;25453;48.162;14.510;2024-02-04T18:46:24;10.90;80.00
39777;DHT22;25453;48.162;14.510;2024-02-04T18:48:52;10.90;80.10
39777;DHT22;25453;48.162;14.510;2024-02-04T18:51:20;10.90;80.10
39777;DHT22;25453;48.162;14.510;2024-02-04T18:53:50;10.90;80.10
39777;DHT22;25453;48.162;14.510;2024-02-04T18:56:18;10.90;80.10
39777;DHT22;25453;48.162;14.510;2024-02-04T18:58:47;10.90;80.10
39777;DHT22;25453;48.162;14.510;2024-02-04T19:01:18;10.90;80.10
39777;DHT22;25453;48.162;14.510;2024-02-04T19:03:52;10.90;80.00
39777;DHT22;25453;48.162;14.510;2024-02-04T19:06:27;10.90;80.00
39777;DHT22;25453;48.162;14.510;2024-02-04T19:08:58;11.00;79.90
39777;DHT22;25453;48.162;14.510;2024-02-04T19:11:26;11.00;79.80
39777;DHT22;25453;48.162;14.510;2024-02-04T19:13:55;11.00;79.70
39777;DHT22;25453;48.162;14.510;2024-02-04T19:16:24;11.00;79.60
39777;DHT22;25453;48.162;14.510;2024-02-04T19:18:53;11.10;79.40
39777;DHT22;25453;48.162;14.510;2024-02-04T19:21:23;11.10;79.30
39777;DHT22;25453;48.162;14.510;2024-02-04T19:23:53;11.10;79.20
39777;DHT22;25453;48.162;14.510;2024-02-04T19:26:28;11.10;79.20
39777;DHT22;25453;48.162;14.510;2024-02-04T19:28:55;11.10;79.10
39777;DHT22;25453;48.162;14.510;2024-02-04T19:31:23;11.10;79.00
39777;DHT22;25453;48.162;14.510;2024-02-04T19:33:50;11.20;78.80
39777;DHT22;25453;48.162;14.510;2024-02-04T19:36:21;11.20;78.80
39777;DHT22;25453;48.162;14.510;2024-02-04T19:38:56;11.20;78.60
39777;DHT22;25453;48.162;14.510;2024-02-04T19:41:31;11.20;78.60
39777;DHT22;25453;48.162;14.510;2024-02-04T19:44:06;11.20;78.40
39777;DHT22;25453;48.162;14.510;2024-02-04T19:46:33;11.30;78.30
39777;DHT22;25453;48.162;14.510;2024-02-04T19:49:02;11.30;78.10
39777;DHT22;25453;48.162;14.510;2024-02-04T19:51:29;11.30;77.90
39777;DHT22;25453;48.162;14.510;2024-02-04T19:54:06;11.30;77.90
39777;DHT22;25453;48.162;14.510;2024-02-04T19:56:33;11.30;77.80
39777;DHT22;25453;48.162;14.510;2024-02-04T19:59:00;11.30;77.80
39777;DHT22;25453;48.162;14.510;2024-02-04T20:01:31;11.30;77.70
39777;DHT22;25453;48.162;14.510;2024-02-04T20:03:59;11.30;77.70
39777;DHT22;25453;48.162;14.510;2024-02-04T20:06:27;11.30;77.70
39777;DHT22;25453;48.162;14.510;2024-02-04T20:08:54;11.30;77.60
39777;DHT22;25453;48.162;14.510;2024-02-04T20:11:22;11.30;77.60
39777;DHT22;25453;48.162;14.510;2024-02-04T20:13:49;11.30;77.60
39777;DHT22;25453;48.162;14.510;2024-02-04T20:16:21;11.30;77.60
39777;DHT22;25453;48.162;14.510;2024-02-04T20:18:58;11.30;77.40
39777;DHT22;25453;48.162;14.510;2024-02-04T20:21:39;11.30;77.60
39777;DHT22;25453;48.162;14.510;2024-02-04T20:24:13;11.30;77.40
39777;DHT22;25453;48.162;14.510;2024-02-04T20:26:49;11.30;77.40
39777;DHT22;25453;48.162;14.510;2024-02-04T20:29:28;11.30;77.40
39777;DHT22;25453;48.162;14.510;2024-02-04T20:32:02;11.30;77.40
39777;DHT22;25453;48.162;14.510;2024-02-04T20:34:42;11.30;77.40
39777;DHT22;25453;48.162;14.510;2024-02-04T20:37:09;11.30;77.20
39777;DHT22;25453;48.162;14.510;2024-02-04T20:39:37;11.30;77.20
39777;DHT22;25453;48.162;14.510;2024-02-04T20:42:04;11.30;77.20
39777;DHT22;25453;48.162;14.510;2024-02-04T20:44:32;11.30;77.20
39777;DHT22;25453;48.162;14.510;2024-02-04T20:46:59;11.30;77.20
39777;DHT22;25453;48.162;14.510;2024-02-04T20:49:27;11.30;77.20
39777;DHT22;25453;48.162;14.510;2024-02-04T20:51:54;11.30;77.20
39777;DHT22;25453;48.162;14.510;2024-02-04T20:54:24;11.30;77.20
39777;DHT22;25453;48.162;14.510;2024-02-04T20:56:52;11.30;77.10
39777;DHT22;25453;48.162;14.510;2024-02-04T20:59:19;11.30;77.10
39777;DHT22;25453;48.162;14.510;2024-02-04T21:01:50;11.30;77.00
39777;DHT22;25453;48.162;14.510;2024-02-04T21:04:17;11.30;77.10
39777;DHT22;25453;48.162;14.510;2024-02-04T21:06:44;11.40;77.00
39777;DHT22;25453;48.162;14.510;2024-02-04T21:09:12;11.40;76.80
39777;DHT22;25453;48.162;14.510;2024-02-04T21:11:40;11.40;76.80
39777;DHT22;25453;48.162;14.510;2024-02-04T21:14:08;11.40;76.70
39777;DHT22;25453;48.162;14.510;2024-02-04T21:16:35;11.40;76.60
39777;DHT22;25453;48.162;14.510;2024-02-04T21:19:02;11.40;76.50
39777;DHT22;25453;48.162;14.510;2024-02-04T21:21:31;11.40;76.40
39777;DHT22;25453;48.162;14.510;2024-02-04T21:23:59;11.40;76.30
39777;DHT22;25453;48.162;14.510;2024-02-04T21:26:28;11.40;76.30
39777;DHT22;25453;48.162;14.510;2024-02-04T21:28:57;11.40;76.10
39777;DHT22;25453;48.162;14.510;2024-02-04T21:31:26;11.40;76.10
39777;DHT22;25453;48.162;14.510;2024-02-04T21:34:00;11.40;76.10
39777;DHT22;25453;48.162;14.510;2024-02-04T21:36:38;11.40;76.10
39777;DHT22;25453;48.162;14.510;2024-02-04T21:39:20;11.40;76.10
39777;DHT22;25453;48.162;14.510;2024-02-04T21:41:50;11.40;76.10
39777;DHT22;25453;48.162;14.510;2024-02-04T21:44:24;11.40;76.00
39777;DHT22;25453;48.162;14.510;2024-02-04T21:46:52;11.40;76.10
39777;DHT22;25453;48.162;14.510;2024-02-04T21:49:19;11.40;76.10
39777;DHT22;25453;48.162;14.510;2024-02-04T21:51:47;11.40;76.10
39777;DHT22;25453;48.162;14.510;2024-02-04T21:54:14;11.40;76.00
39777;DHT22;25453;48.162;14.510;2024-02-04T21:56:44;11.30;76.00
39777;DHT22;25453;48.162;14.510;2024-02-04T21:59:12;11.30;76.00
39777;DHT22;25453;48.162;14.510;2024-02-04T22:01:39;11.30;75.90
39777;DHT22;25453;48.162;14.510;2024-02-04T22:04:08;11.30;75.90
39777;DHT22;25453;48.162;14.510;2024-02-04T22:06:36;11.30;75.90
39777;DHT22;25453;48.162;14.510;2024-02-04T22:09:03;11.30;75.90
39777;DHT22;25453;48.162;14.510;2024-02-04T22:11:30;11.30;75.80
39777;DHT22;25453;48.162;14.510;2024-02-04T22:14:00;11.30;75.70
39777;DHT22;25453;48.162;14.510;2024-02-04T22:16:27;11.30;75.60
39777;DHT22;25453;48.162;14.510;2024-02-04T22:18:57;11.40;75.60
39777;DHT22;25453;48.162;14.510;2024-02-04T22:21:24;11.40;75.60
39777;DHT22;25453;48.162;14.510;2024-02-04T22:23:53;11.40;75.60
39777;DHT22;25453;48.162;14.510;2024-02-04T22:26:21;11.40;75.50
39777;DHT22;25453;48.162;14.510;2024-02-04T22:28:49;11.40;75.40
39777;DHT22;25453;48.162;14.510;2024-02-04T22:31:17;11.40;75.40
39777;DHT22;25453;48.162;14.510;2024-02-04T22:33:46;11.40;75.40
39777;DHT22;25453;48.162;14.510;2024-02-04T22:36:24;11.40;75.30
39777;DHT22;25453;48.162;14.510;2024-02-04T22:39:03;11.40;75.30
39777;DHT22;25453;48.162;14.510;2024-02-04T22:41:47;11.40;75.30
39777;DHT22;25453;48.162;14.510;2024-02-04T22:44:20;11.40;75.10
39777;DHT22;25453;48.162;14.510;2024-02-04T22:46:52;11.40;75.20
39777;DHT22;25453;48.162;14.510;2024-02-04T22:49:22;11.40;75.20
39777;DHT22;25453;48.162;14.510;2024-02-04T22:51:50;11.40;75.20
39777;DHT22;25453;48.162;14.510;2024-02-04T22:54:17;11.40;75.20
39777;DHT22;25453;48.162;14.510;2024-02-04T22:56:44;11.40;75.10
39777;DHT22;25453;48.162;14.510;2024-02-04T22:59:12;11.40;75.20
39777;DHT22;25453;48.162;14.510;2024-02-04T23:01:41;11.40;75.10
39777;DHT22;25453;48.162;14.510;2024-02-04T23:04:14;11.40;75.10
39777;DHT22;25453;48.162;14.510;2024-02-04T23:06:41;11.40;75.10
39777;DHT22;25453;48.162;14.510;2024-02-04T23:09:08;11.40;74.90
39777;DHT22;25453;48.162;14.510;2024-02-04T23:11:40;11.40;74.90
39777;DHT22;25453;48.162;14.510;2024-02-04T23:14:09;11.40;74.90
39777;DHT22;25453;48.162;14.510;2024-02-04T23:16:36;11.40;74.90
39777;DHT22;25453;48.162;14.510;2024-02-04T23:19:03;11.50;74.70
39777;DHT22;25453;48.162;14.510;2024-02-04T23:21:30;11.40;74.80
39777;DHT22;25453;48.162;14.510;2024-02-04T23:23:58;11.50;74.70
39777;DHT22;25453;48.162;14.510;2024-02-04T23:26:25;11.50;74.60
39777;DHT22;25453;48.162;14.510;2024-02-04T23:28:52;11.50;74.60
39777;DHT22;25453;48.162;14.510;2024-02-04T23:31:21;11.50;74.60
39777;DHT22;25453;48.162;14.510;2024-02-04T23:33:48;11.50;74.50
39777;DHT22;25453;48.162;14.510;2024-02-04T23:36:16;11.50;74.50
39777;DHT22;25453;48.162;14.510;2024-02-04T23:38:43;11.50;74.50
39777;DHT22;25453;48.162;14.510;2024-02-04T23:41:10;11.50;74.30
39777;DHT22;25453;48.162;14.510;2024-02-04T23:43:38;11.50;74.30
39777;DHT22;25453;48.162;14.510;2024-02-04T23:46:06;11.50;74.30
39777;DHT22;25453;48.162;14.510;2024-02-04T23:48:33;11.40;74.30